createdAt,value
2019-03-12T10:03:44.729Z,18.45
2019-03-12T10:06:15.835Z,18.40
2019-03-12T10:08:46.335Z,18.00
2019-03-12T10:11:26.029Z,15.50
2019-03-12T10:13:56.733Z,15.03
2019-03-12T10:16:43.651Z,18.13
2019-03-12T10:19:16.878Z,17.83
2019-03-12T10:21:49.604Z,20.67
2019-03-12T10:24:36.661Z,15.57
2019-03-12T10:27:10.512Z,19.37
2019-03-12T10:29:44.065Z,16.27
2019-03-12T10:32:15.051Z,23.47
2019-03-12T10:34:55.252Z,17.97
2019-03-12T10:37:29.034Z,19.87
2019-03-12T10:40:07.481Z,17.17
2019-03-12T10:42:52.785Z,17.33
2019-03-12T10:45:35.414Z,17.33
2019-03-12T10:48:05.846Z,13.70
2019-03-12T10:50:34.996Z,13.97
2019-03-12T10:53:04.092Z,15.30
2019-03-12T10:55:33.379Z,17.43
2019-03-12T10:58:02.690Z,12.80
2019-03-12T11:00:31.808Z,18.13
2019-03-12T11:03:01.066Z,15.70
2019-03-12T11:05:30.142Z,14.60
2019-03-12T11:08:00.499Z,16.37
2019-03-12T11:10:30.201Z,16.13
2019-03-12T11:12:59.372Z,15.50
2019-03-12T11:15:29.070Z,14.83
2019-03-12T11:17:58.190Z,13.43
2019-03-12T11:20:28.264Z,13.70
2019-03-12T11:22:57.558Z,13.20
2019-03-12T11:25:28.169Z,13.77
2019-03-12T11:27:57.515Z,13.43
2019-03-12T11:30:26.891Z,13.00
2019-03-12T11:32:55.916Z,13.67
2019-03-12T11:35:25.127Z,14.27
2019-03-12T11:37:54.299Z,13.03
2019-03-12T11:40:28.974Z,11.03
2019-03-12T11:42:56.806Z,13.23
2019-03-12T11:45:36.118Z,10.87
2019-03-12T11:47:56.735Z,9.53
2019-03-12T11:50:27.880Z,15.27
2019-03-12T11:52:59.325Z,14.10
2019-03-12T11:55:28.164Z,13.87
2019-03-12T11:57:57.549Z,14.07
2019-03-12T12:00:28.620Z,12.30
2019-03-12T12:03:00.256Z,10.80
2019-03-12T12:05:30.832Z,14.87
2019-03-12T12:08:01.568Z,12.20
2019-03-12T12:10:30.643Z,11.90
2019-03-12T12:12:59.816Z,11.53
2019-03-12T12:15:28.996Z,12.87
2019-03-12T12:17:58.045Z,14.27
2019-03-12T12:20:29.959Z,9.40
2019-03-12T12:22:58.218Z,9.97
2019-03-12T12:25:27.736Z,10.77
2019-03-12T12:27:56.865Z,9.63
2019-03-12T12:30:25.982Z,12.17
2019-03-12T12:32:55.071Z,13.37
2019-03-12T12:35:24.395Z,12.07
2019-03-12T12:37:55.070Z,14.90
2019-03-12T12:40:25.737Z,11.10
2019-03-12T12:42:54.897Z,10.30
2019-03-12T12:45:39.220Z,8.40
2019-03-12T12:48:08.509Z,9.77
2019-03-12T12:50:37.998Z,7.23
2019-03-12T12:53:08.701Z,10.33
2019-03-12T12:55:38.066Z,9.10
2019-03-12T12:58:07.393Z,12.43
2019-03-12T13:00:38.384Z,12.23
2019-03-12T13:03:07.558Z,11.47
2019-03-12T13:05:38.101Z,10.07
2019-03-12T13:08:07.687Z,11.13
2019-03-12T13:10:36.841Z,9.17
2019-03-12T13:13:06.706Z,8.90
2019-03-12T13:15:35.963Z,10.47
2019-03-12T13:18:05.160Z,14.83
2019-03-12T13:20:34.507Z,11.73
2019-03-12T13:23:03.836Z,11.40
2019-03-12T13:25:33.729Z,9.10
2019-03-12T13:28:02.934Z,10.03
2019-03-12T13:30:31.981Z,10.37
2019-03-12T13:33:01.247Z,8.53
2019-03-12T13:35:32.441Z,11.07
2019-03-12T13:38:01.907Z,8.40
2019-03-12T13:40:31.152Z,9.23
2019-03-12T13:43:00.501Z,11.73
2019-03-12T13:45:31.225Z,12.67
2019-03-12T13:48:02.587Z,11.43
2019-03-12T13:50:33.122Z,10.93
2019-03-12T13:53:02.413Z,10.17
2019-03-12T13:55:31.929Z,14.73
2019-03-12T13:58:01.317Z,12.23
2019-03-12T14:00:33.107Z,8.13
2019-03-12T14:03:01.737Z,8.20
2019-03-12T14:05:30.781Z,13.47
2019-03-12T14:08:00.119Z,14.63
2019-03-12T14:10:29.584Z,10.83
2019-03-12T14:12:58.750Z,14.40
2019-03-12T14:15:40.851Z,10.13
2019-03-12T14:18:09.904Z,8.73
2019-03-12T14:20:47.934Z,10.70
2019-03-12T14:31:02.526Z,11.88
2019-03-12T14:33:31.729Z,10.87
2019-03-12T14:36:00.754Z,11.13
2019-03-12T14:38:29.921Z,13.73
2019-03-12T14:40:59.148Z,13.13
2019-03-12T14:43:29.984Z,11.83
2019-03-12T14:45:59.037Z,7.30
2019-03-12T14:48:45.408Z,10.07
2019-03-12T14:51:35.808Z,7.77
2019-03-12T14:54:08.893Z,14.97
2019-03-12T14:56:37.937Z,9.83
2019-03-12T14:59:07.435Z,13.07
2019-03-12T15:01:36.624Z,12.87
2019-03-12T15:04:05.902Z,13.73
2019-03-12T15:06:35.221Z,11.80
2019-03-12T15:09:06.553Z,11.67
2019-03-12T15:11:38.463Z,14.27
2019-03-12T15:14:07.803Z,12.87
2019-03-12T15:16:38.156Z,13.60
2019-03-12T15:19:07.460Z,11.00
2019-03-12T15:21:36.512Z,15.23
2019-03-12T15:24:06.052Z,11.80
2019-03-12T15:26:35.142Z,14.33
2019-03-12T15:29:04.524Z,13.53
2019-03-12T15:31:33.845Z,11.47
2019-03-12T15:34:02.809Z,14.17
2019-03-12T15:36:32.193Z,9.53
2019-03-12T15:39:01.230Z,13.40
2019-03-12T15:41:31.781Z,12.77
2019-03-12T15:44:00.724Z,10.43
2019-03-12T15:46:29.943Z,13.93
2019-03-12T15:48:59.061Z,13.83
2019-03-12T15:51:28.132Z,13.40
2019-03-12T15:53:56.737Z,13.13
2019-03-12T15:56:29.154Z,14.77
2019-03-12T15:58:58.311Z,18.40
2019-03-12T16:01:27.068Z,16.47
2019-03-12T16:03:57.488Z,16.60
2019-03-12T16:06:26.593Z,20.73
